createdAt,value
2018-11-01T00:02:10.287Z,53.54
2018-11-01T00:04:35.397Z,53.55
2018-11-01T00:07:00.446Z,53.46
2018-11-01T00:09:25.530Z,53.50
2018-11-01T00:11:50.594Z,53.45
2018-11-01T00:14:15.735Z,53.12
2018-11-01T00:16:40.866Z,53.26
2018-11-01T00:19:06.322Z,53.38
2018-11-01T00:21:31.421Z,53.44
2018-11-01T00:23:56.509Z,53.59
2018-11-01T00:26:21.618Z,53.63
2018-11-01T00:28:46.848Z,53.71
2018-11-01T00:31:11.931Z,53.66
2018-11-01T00:33:37.045Z,53.91
2018-11-01T00:36:02.279Z,54.04
2018-11-01T00:38:27.363Z,54.04
2018-11-01T00:40:52.453Z,53.97
2018-11-01T00:43:17.503Z,53.85
2018-11-01T00:45:42.610Z,53.67
2018-11-01T00:48:07.678Z,53.84
2018-11-01T00:50:51.757Z,53.83
2018-11-01T00:53:16.824Z,53.68
2018-11-01T00:55:41.921Z,53.66
2018-11-01T00:58:07.406Z,53.67
2018-11-01T01:00:51.448Z,53.67
2018-11-01T01:03:16.551Z,53.83
2018-11-01T01:05:41.629Z,53.90
2018-11-01T01:08:25.692Z,54.44
2018-11-01T01:11:09.732Z,54.35
2018-11-01T01:13:53.819Z,54.08
2018-11-01T01:16:18.944Z,54.00
2018-11-01T01:18:44.541Z,54.27
2018-11-01T01:21:09.655Z,54.36
2018-11-01T01:23:34.792Z,54.57
2018-11-01T01:25:59.987Z,54.64
2018-11-01T01:28:25.091Z,54.66
2018-11-01T01:33:27.644Z,54.79
2018-11-01T01:35:52.787Z,54.85
2018-11-01T01:38:17.954Z,54.88
2018-11-01T01:40:43.102Z,55.01
2018-11-01T01:43:08.195Z,55.33
2018-11-01T01:45:33.376Z,55.23
2018-11-01T01:47:58.544Z,55.13
2018-11-01T01:50:23.733Z,54.92
2018-11-01T01:52:49.051Z,54.93
2018-11-01T01:55:14.183Z,55.02
2018-11-01T01:57:39.713Z,55.02
2018-11-01T02:00:04.826Z,54.96
2018-11-01T02:05:07.443Z,55.17
2018-11-01T02:07:51.531Z,55.05
2018-11-01T02:10:17.434Z,55.21
2018-11-01T02:12:42.600Z,55.33
2018-11-01T02:15:09.764Z,55.22
2018-11-01T02:17:34.845Z,55.40
2018-11-01T02:19:59.966Z,55.16
2018-11-01T02:22:44.549Z,55.11
2018-11-01T02:25:09.958Z,55.27
2018-11-01T02:30:31.469Z,54.99
2018-11-01T02:32:56.589Z,55.27
2018-11-01T02:38:00.573Z,55.32
2018-11-01T02:40:25.625Z,55.29
2018-11-01T02:42:50.692Z,55.29
2018-11-01T02:45:16.273Z,55.24
2018-11-01T02:48:00.342Z,55.25
2018-11-01T02:50:47.884Z,55.32
2018-11-01T02:53:31.950Z,55.25
2018-11-01T02:55:57.060Z,55.45
2018-11-01T02:58:22.211Z,55.60
2018-11-01T03:01:27.468Z,55.52
2018-11-01T03:03:52.636Z,55.71
2018-11-01T03:06:18.295Z,55.64
2018-11-01T03:08:43.467Z,55.96
2018-11-01T03:14:04.598Z,56.22
2018-11-01T03:16:29.692Z,56.17
2018-11-01T03:18:54.858Z,56.29
2018-11-01T03:21:20.032Z,56.06
2018-11-01T03:23:45.139Z,56.41
2018-11-01T03:26:10.374Z,56.40
2018-11-01T03:28:35.441Z,56.30
2018-11-01T03:33:51.856Z,56.35
2018-11-01T03:36:17.001Z,56.50
2018-11-01T03:41:24.083Z,56.75
2018-11-01T03:43:49.194Z,56.49
2018-11-01T03:46:14.272Z,56.75
2018-11-01T03:48:39.346Z,56.65
2018-11-01T03:51:04.443Z,56.68
2018-11-01T03:53:29.616Z,56.88
2018-11-01T03:55:54.633Z,56.76
2018-11-01T03:58:19.730Z,56.80
2018-11-01T04:00:44.939Z,56.77
2018-11-01T04:03:10.038Z,56.94
2018-11-01T04:05:35.134Z,57.27
2018-11-01T04:10:39.309Z,57.28
2018-11-01T04:13:04.429Z,57.25
2018-11-01T04:15:29.526Z,57.36
2018-11-01T04:17:54.617Z,57.54
2018-11-01T04:20:19.696Z,57.66
2018-11-01T04:22:44.804Z,57.83
2018-11-01T04:25:09.910Z,58.34
2018-11-01T04:27:35.015Z,57.87
2018-11-01T04:30:00.088Z,57.74
2018-11-01T04:32:25.215Z,57.77
2018-11-01T04:34:50.300Z,57.91
2018-11-01T04:37:15.366Z,58.00
2018-11-01T04:39:40.481Z,57.93
2018-11-01T04:42:05.546Z,57.88
2018-11-01T04:44:30.658Z,58.28
2018-11-01T04:46:55.710Z,58.18
2018-11-01T04:49:20.792Z,58.10
2018-11-01T04:51:45.875Z,58.15
2018-11-01T04:54:10.970Z,58.55
2018-11-01T04:56:36.253Z,58.35
2018-11-01T04:59:01.371Z,58.21
2018-11-01T05:01:26.513Z,58.38
2018-11-01T05:03:53.908Z,58.22
2018-11-01T05:06:18.980Z,58.71
2018-11-01T05:08:44.085Z,58.45
2018-11-01T05:11:09.206Z,58.83
2018-11-01T05:13:34.379Z,58.98
2018-11-01T05:16:18.410Z,58.95
2018-11-01T05:18:44.192Z,58.85
2018-11-01T05:21:09.277Z,58.98
2018-11-01T05:23:34.385Z,59.02
2018-11-01T05:25:59.543Z,58.99
2018-11-01T05:28:24.608Z,59.08
2018-11-01T05:30:49.725Z,59.15
2018-11-01T05:33:14.822Z,59.10
2018-11-01T05:38:37.901Z,58.99
2018-11-01T05:43:56.458Z,59.49
2018-11-01T05:46:21.548Z,59.29
2018-11-01T05:48:46.619Z,59.50
2018-11-01T05:51:11.714Z,59.60
2018-11-01T05:53:36.785Z,59.50
2018-11-01T05:56:01.892Z,59.55
2018-11-01T05:58:26.984Z,59.72
2018-11-01T06:00:52.113Z,59.77
2018-11-01T06:03:17.651Z,59.70
2018-11-01T06:05:42.754Z,59.82
2018-11-01T06:08:28.778Z,59.73
2018-11-01T06:11:12.852Z,59.96
2018-11-01T06:13:57.013Z,59.63
2018-11-01T06:16:22.079Z,59.82
2018-11-01T06:18:47.173Z,59.68
2018-11-01T06:21:12.285Z,59.81
2018-11-01T06:23:37.389Z,59.99
2018-11-01T06:26:02.593Z,59.97
2018-11-01T06:31:04.006Z,60.13
2018-11-01T06:33:29.087Z,60.07
2018-11-01T06:35:56.006Z,59.97
2018-11-01T06:38:21.158Z,60.40
2018-11-01T06:40:46.225Z,60.28
2018-11-01T06:43:11.344Z,60.36
2018-11-01T06:45:36.423Z,60.46
2018-11-01T06:48:01.499Z,60.26
2018-11-01T06:50:26.632Z,60.16
2018-11-01T06:52:51.681Z,60.21
2018-11-01T06:55:16.803Z,60.17
2018-11-01T06:57:41.903Z,60.28
2018-11-01T07:00:09.258Z,60.45
2018-11-01T07:02:34.339Z,60.09
2018-11-01T07:04:59.409Z,60.27
2018-11-01T07:07:24.606Z,60.27
2018-11-01T07:09:49.658Z,60.26
2018-11-01T07:12:14.742Z,60.33
2018-11-01T07:14:39.814Z,60.33
2018-11-01T07:17:04.953Z,60.50
2018-11-01T07:19:30.061Z,60.34
2018-11-01T07:21:55.205Z,60.72
2018-11-01T07:24:20.292Z,60.41
2018-11-01T07:26:45.366Z,60.32
2018-11-01T07:29:10.572Z,60.37
2018-11-01T07:31:54.692Z,60.53
2018-11-01T07:34:19.769Z,60.51
2018-11-01T07:36:44.845Z,60.15
2018-11-01T07:39:10.953Z,60.10
2018-11-01T07:41:36.051Z,59.96
2018-11-01T07:44:01.140Z,59.80
2018-11-01T07:46:26.182Z,59.72
2018-11-01T07:48:51.301Z,59.82
2018-11-01T07:51:16.381Z,59.62
2018-11-01T07:53:41.453Z,59.54
2018-11-01T07:56:06.664Z,59.44
2018-11-01T07:58:31.769Z,59.50
2018-11-01T08:00:56.816Z,59.49
2018-11-01T08:03:21.893Z,59.74
2018-11-01T08:05:47.118Z,59.37
2018-11-01T08:08:12.048Z,59.49
2018-11-01T08:10:37.121Z,59.51
2018-11-01T08:13:02.231Z,59.39
2018-11-01T08:15:46.277Z,59.48
2018-11-01T08:18:11.411Z,59.54
2018-11-01T08:20:36.642Z,59.41
2018-11-01T08:23:01.579Z,59.46
2018-11-01T08:25:26.682Z,59.50
2018-11-01T08:27:51.874Z,59.11
2018-11-01T08:30:17.949Z,58.95
2018-11-01T08:32:43.052Z,59.13
2018-11-01T08:35:27.133Z,58.88
2018-11-01T08:37:52.213Z,58.87
2018-11-01T08:40:17.293Z,58.59
2018-11-01T08:42:42.864Z,58.73
2018-11-01T08:45:10.093Z,58.59
2018-11-01T08:47:35.196Z,58.72
2018-11-01T08:50:00.339Z,58.81
2018-11-01T08:52:25.503Z,58.76
2018-11-01T08:54:50.575Z,58.44
2018-11-01T08:57:15.641Z,58.38
2018-11-01T08:59:40.765Z,58.23
2018-11-01T09:02:05.948Z,58.02
2018-11-01T09:04:31.085Z,58.50
2018-11-01T09:06:56.176Z,58.22
2018-11-01T09:09:21.255Z,58.25
2018-11-01T09:12:05.325Z,58.55
2018-11-01T09:14:30.468Z,58.50
2018-11-01T09:16:55.512Z,58.81
2018-11-01T09:19:20.668Z,58.63
2018-11-01T09:21:45.872Z,58.86
2018-11-01T09:24:11.046Z,58.68
2018-11-01T09:26:36.274Z,58.79
2018-11-01T09:29:01.400Z,58.85
2018-11-01T09:31:26.556Z,59.92
2018-11-01T09:34:11.272Z,59.14
2018-11-01T09:36:55.575Z,58.94
2018-11-01T09:39:20.680Z,58.76
2018-11-01T09:41:45.737Z,58.14
2018-11-01T09:44:29.773Z,58.30
2018-11-01T09:46:55.278Z,58.13
2018-11-01T09:49:19.952Z,57.45
2018-11-01T09:51:45.125Z,57.19
2018-11-01T09:54:10.185Z,57.02
2018-11-01T09:56:35.439Z,56.94
2018-11-01T09:59:00.799Z,56.93
2018-11-01T10:01:25.879Z,56.21
2018-11-01T10:03:51.035Z,55.95
2018-11-01T10:06:16.106Z,55.50
2018-11-01T10:08:41.206Z,55.44
2018-11-01T10:11:06.362Z,55.69
2018-11-01T10:13:31.470Z,55.65
2018-11-01T10:15:57.077Z,55.21
2018-11-01T10:18:22.356Z,54.88
2018-11-01T10:20:47.100Z,54.52
2018-11-01T10:23:12.594Z,54.25
2018-11-01T10:25:39.846Z,54.31
2018-11-01T10:30:56.429Z,54.42
2018-11-01T10:33:48.566Z,54.30
2018-11-01T10:36:20.202Z,54.81
2018-11-01T10:38:45.375Z,55.10
2018-11-01T10:41:10.494Z,54.68
2018-11-01T10:43:35.575Z,55.02
2018-11-01T10:46:00.691Z,54.50
2018-11-01T10:48:25.760Z,54.02
2018-11-01T10:50:50.882Z,54.06
2018-11-01T10:53:15.994Z,54.11
2018-11-01T10:55:41.063Z,54.04
2018-11-01T10:58:06.339Z,53.82
2018-11-01T11:00:57.807Z,54.17
2018-11-01T11:03:22.707Z,53.63
2018-11-01T11:06:06.773Z,53.56
2018-11-01T11:08:31.908Z,53.49
2018-11-01T11:10:57.016Z,53.56
2018-11-01T11:13:22.109Z,54.70
2018-11-01T11:15:47.203Z,53.98
2018-11-01T11:18:12.302Z,53.46
2018-11-01T11:20:37.579Z,53.45
2018-11-01T11:23:02.538Z,53.15
2018-11-01T11:25:27.627Z,53.46
2018-11-01T11:27:52.737Z,52.75
2018-11-01T11:30:18.044Z,52.83
2018-11-01T11:32:43.105Z,52.90
2018-11-01T11:35:08.731Z,53.88
2018-11-01T11:37:33.869Z,53.29
2018-11-01T11:42:35.801Z,52.88
2018-11-01T11:45:00.912Z,52.88
2018-11-01T11:47:26.055Z,53.41
2018-11-01T11:49:51.124Z,53.97
2018-11-01T11:52:16.213Z,54.36
2018-11-01T11:54:41.296Z,54.91
2018-11-01T11:57:08.093Z,54.67
2018-11-01T11:59:33.167Z,55.10
2018-11-01T12:02:17.332Z,55.16
2018-11-01T12:04:42.401Z,55.20
2018-11-01T12:07:07.681Z,55.15
2018-11-01T12:09:32.763Z,55.07
2018-11-01T12:11:57.860Z,55.44
2018-11-01T12:14:23.097Z,56.30
2018-11-01T12:16:48.087Z,55.93
2018-11-01T12:19:13.185Z,56.31
2018-11-01T12:21:38.342Z,56.48
2018-11-01T12:24:03.441Z,56.93
2018-11-01T12:26:28.559Z,56.68
2018-11-01T12:28:53.853Z,56.59
2018-11-01T12:31:18.870Z,56.64
2018-11-01T12:33:43.981Z,56.73
2018-11-01T12:36:09.176Z,56.72
2018-11-01T12:38:53.149Z,56.89
2018-11-01T12:41:18.316Z,56.89
2018-11-01T12:43:43.362Z,56.86
2018-11-01T12:46:08.456Z,57.67
2018-11-01T12:48:33.571Z,57.44
2018-11-01T12:50:58.682Z,57.32
2018-11-01T12:53:23.798Z,57.29
2018-11-01T12:55:48.899Z,57.33
2018-11-01T12:58:13.996Z,57.83
2018-11-01T13:00:39.160Z,57.92
2018-11-01T13:03:04.437Z,57.89
2018-11-01T13:05:29.608Z,58.21
2018-11-01T13:07:54.664Z,57.97
2018-11-01T13:10:19.790Z,58.37
2018-11-01T13:12:44.902Z,58.37
2018-11-01T13:15:12.146Z,57.97
2018-11-01T13:17:37.277Z,58.23
2018-11-01T13:20:02.406Z,58.68
2018-11-01T13:22:27.540Z,58.63
2018-11-01T13:24:53.107Z,58.53
2018-11-01T13:27:18.184Z,58.34
2018-11-01T13:29:43.349Z,58.44
2018-11-01T13:32:08.471Z,58.70
2018-11-01T13:34:33.704Z,58.66
2018-11-01T13:36:58.777Z,58.56
2018-11-01T13:39:24.029Z,58.79
2018-11-01T13:41:49.162Z,58.77
2018-11-01T13:44:14.188Z,58.96
2018-11-01T13:46:39.453Z,59.25
2018-11-01T13:49:04.672Z,59.14
2018-11-01T13:51:29.800Z,59.11
2018-11-01T13:53:54.943Z,59.11
2018-11-01T13:56:20.098Z,59.38
2018-11-01T13:58:45.241Z,59.32
2018-11-01T14:01:10.359Z,59.22
2018-11-01T14:03:35.474Z,59.33
2018-11-01T14:06:00.613Z,59.25
2018-11-01T14:08:25.710Z,59.29
2018-11-01T14:10:50.900Z,59.40
2018-11-01T14:13:16.172Z,59.85
2018-11-01T14:15:41.157Z,59.69
2018-11-01T14:18:06.558Z,59.52
2018-11-01T14:20:31.674Z,59.89
2018-11-01T14:22:56.805Z,60.00
2018-11-01T14:25:21.943Z,59.77
2018-11-01T14:28:06.072Z,59.76
2018-11-01T14:30:31.215Z,59.54
2018-11-01T14:32:56.322Z,59.78
2018-11-01T14:35:21.484Z,59.97
2018-11-01T14:37:46.686Z,61.43
2018-11-01T14:40:30.482Z,60.34
2018-11-01T14:42:55.572Z,60.05
2018-11-01T14:45:20.708Z,59.79
2018-11-01T14:47:45.842Z,59.98
2018-11-01T14:50:11.775Z,59.99
2018-11-01T14:52:37.269Z,60.22
2018-11-01T14:55:03.098Z,60.08
2018-11-01T14:57:28.717Z,60.01
2018-11-01T14:59:53.212Z,60.14
2018-11-01T15:02:17.438Z,60.28
2018-11-01T15:04:42.562Z,60.18
2018-11-01T15:07:07.747Z,60.35
2018-11-01T15:09:32.822Z,60.40
2018-11-01T15:11:57.909Z,60.67
2018-11-01T15:14:23.090Z,60.53
2018-11-01T15:17:07.194Z,60.52
2018-11-01T15:19:32.303Z,60.92
2018-11-01T15:21:57.456Z,60.77
2018-11-01T15:24:22.608Z,60.88
2018-11-01T15:26:47.693Z,61.03
2018-11-01T15:29:12.824Z,61.21
2018-11-01T15:31:37.971Z,61.13
2018-11-01T15:34:03.138Z,61.18
2018-11-01T15:36:28.212Z,61.15
2018-11-01T15:38:53.346Z,61.10
2018-11-01T15:41:18.904Z,61.39
2018-11-01T15:43:44.039Z,61.20
2018-11-01T15:46:09.788Z,61.45
2018-11-01T15:48:34.986Z,61.69
2018-11-01T15:51:00.076Z,61.98
2018-11-01T15:53:25.221Z,62.05
2018-11-01T15:56:09.269Z,61.64
2018-11-01T16:01:11.016Z,61.97
2018-11-01T16:03:36.241Z,61.86
2018-11-01T16:06:01.308Z,61.70
2018-11-01T16:08:26.424Z,61.82
2018-11-01T16:10:51.523Z,61.95
2018-11-01T16:13:16.725Z,62.51
2018-11-01T16:18:18.009Z,62.32
2018-11-01T16:20:43.138Z,62.47
2018-11-01T16:23:08.265Z,62.57
2018-11-01T16:25:33.408Z,62.46
2018-11-01T16:27:58.515Z,62.42
2018-11-01T16:30:23.674Z,64.02
2018-11-01T16:32:48.818Z,63.26
2018-11-01T16:35:13.989Z,62.81
2018-11-01T16:37:39.306Z,62.97
2018-11-01T16:40:04.795Z,63.56
2018-11-01T16:42:30.347Z,63.57
2018-11-01T16:44:55.356Z,63.01
2018-11-01T16:47:20.391Z,64.47
2018-11-01T16:49:45.509Z,64.36
2018-11-01T16:52:10.622Z,64.07
2018-11-01T16:54:35.746Z,64.25
2018-11-01T16:57:00.865Z,63.49
2018-11-01T16:59:26.015Z,63.48
2018-11-01T17:01:51.182Z,63.51
2018-11-01T17:04:18.826Z,63.69
2018-11-01T17:06:41.438Z,63.55
2018-11-01T17:09:09.473Z,63.65
2018-11-01T17:11:34.580Z,63.97
2018-11-01T17:13:59.727Z,64.04
2018-11-01T17:16:24.868Z,63.98
2018-11-01T17:18:50.013Z,64.01
2018-11-01T17:21:15.172Z,63.93
2018-11-01T17:23:40.299Z,64.04
2018-11-01T17:26:05.538Z,63.81
2018-11-01T17:28:54.586Z,64.13
2018-11-01T17:31:33.739Z,64.22
2018-11-01T17:34:17.992Z,63.92
2018-11-01T17:36:42.984Z,64.49
2018-11-01T17:41:45.690Z,65.20
2018-11-01T17:44:10.791Z,64.54
2018-11-01T17:46:35.969Z,64.26
2018-11-01T17:49:01.135Z,64.19
2018-11-01T17:51:26.427Z,64.12
2018-11-01T17:53:51.514Z,64.08
2018-11-01T17:56:16.737Z,64.37
2018-11-01T17:58:41.868Z,64.29
2018-11-01T18:01:07.404Z,64.27
2018-11-01T18:03:32.552Z,64.16
2018-11-01T18:05:57.733Z,64.09
2018-11-01T18:08:22.955Z,64.71
2018-11-01T18:10:47.994Z,64.89
2018-11-01T18:13:13.175Z,65.29
2018-11-01T18:15:38.329Z,65.75
2018-11-01T18:18:22.375Z,65.58
2018-11-01T18:20:47.541Z,66.34
2018-11-01T18:23:12.853Z,66.11
2018-11-01T18:25:56.525Z,66.48
2018-11-01T18:28:21.778Z,65.55
2018-11-01T18:30:47.029Z,66.64
2018-11-01T18:33:12.348Z,66.81
2018-11-01T18:35:37.370Z,65.67
2018-11-01T18:38:02.526Z,66.81
2018-11-01T18:40:27.685Z,66.29
2018-11-01T18:42:52.764Z,67.40
2018-11-01T18:45:17.902Z,66.84
2018-11-01T18:47:43.676Z,67.90
2018-11-01T18:50:09.791Z,66.59
2018-11-01T18:52:34.956Z,66.65
2018-11-01T18:55:00.078Z,66.37
2018-11-01T18:57:25.202Z,67.82
2018-11-01T18:59:50.381Z,66.73
2018-11-01T19:02:15.502Z,67.01
2018-11-01T19:04:40.639Z,66.40
2018-11-01T19:07:05.818Z,66.13
2018-11-01T19:09:30.974Z,66.96
2018-11-01T19:11:56.108Z,67.55
2018-11-01T19:14:21.229Z,66.72
2018-11-01T19:16:46.483Z,66.66
2018-11-01T19:19:11.597Z,66.73
2018-11-01T19:21:36.809Z,65.99
2018-11-01T19:24:01.903Z,66.47
2018-11-01T19:26:27.077Z,66.82
2018-11-01T19:28:52.220Z,68.03
2018-11-01T19:31:17.376Z,68.54
2018-11-01T19:33:42.767Z,67.66
2018-11-01T19:36:07.908Z,68.06
2018-11-01T19:38:33.014Z,67.43
2018-11-01T19:40:58.154Z,69.29
2018-11-01T19:43:23.295Z,69.70
2018-11-01T19:45:48.454Z,69.16
2018-11-01T19:48:13.656Z,69.15
2018-11-01T19:50:38.803Z,70.64
2018-11-01T19:53:03.951Z,70.41
2018-11-01T19:55:29.061Z,70.71
2018-11-01T19:57:54.227Z,70.71
2018-11-01T20:00:38.310Z,71.29
2018-11-01T20:03:03.489Z,71.87
2018-11-01T20:05:28.632Z,72.09
2018-11-01T20:07:53.766Z,72.85
2018-11-01T20:10:18.957Z,72.77
2018-11-01T20:12:44.576Z,72.18
2018-11-01T20:15:09.821Z,72.83
2018-11-01T20:17:35.168Z,72.37
2018-11-01T20:20:00.299Z,72.37
2018-11-01T20:22:25.452Z,72.29
2018-11-01T20:24:50.568Z,71.16
2018-11-01T20:27:15.779Z,71.69
2018-11-01T20:29:40.958Z,72.10
2018-11-01T20:32:06.287Z,71.49
2018-11-01T20:34:31.441Z,71.87
2018-11-01T20:36:56.566Z,70.71
2018-11-01T20:39:21.746Z,71.35
2018-11-01T20:41:46.902Z,71.76
2018-11-01T20:44:12.735Z,70.70
2018-11-01T20:46:37.850Z,71.03
2018-11-01T20:49:02.994Z,70.55
2018-11-01T20:51:28.108Z,70.74
2018-11-01T20:53:53.315Z,70.06
2018-11-01T20:56:18.431Z,69.09
2018-11-01T20:58:43.576Z,68.01
2018-11-01T21:01:08.710Z,68.50
2018-11-01T21:03:33.858Z,68.03
2018-11-01T21:05:59.036Z,67.51
2018-11-01T21:08:24.229Z,67.35
2018-11-01T21:10:49.252Z,67.68
2018-11-01T21:13:14.319Z,67.78
2018-11-01T21:15:39.507Z,67.57
2018-11-01T21:18:04.720Z,67.24
2018-11-01T21:20:29.835Z,67.50
2018-11-01T21:22:54.951Z,67.81
2018-11-01T21:25:20.123Z,67.63
2018-11-01T21:27:45.225Z,67.43
2018-11-01T21:30:10.825Z,68.08
2018-11-01T21:32:35.980Z,68.37
2018-11-01T21:35:01.447Z,69.06
2018-11-01T21:37:26.578Z,67.65
2018-11-01T21:39:51.676Z,67.52
2018-11-01T21:42:16.819Z,69.64
2018-11-01T21:44:41.973Z,69.43
2018-11-01T21:47:07.225Z,71.11
2018-11-01T21:49:32.358Z,69.92
2018-11-01T21:51:57.465Z,69.98
2018-11-01T21:54:22.598Z,70.23
2018-11-01T21:56:47.705Z,68.85
2018-11-01T21:59:12.782Z,68.09
2018-11-01T22:01:37.871Z,67.82
2018-11-01T22:04:14.593Z,67.44
2018-11-01T22:06:39.813Z,67.52
2018-11-01T22:09:05.460Z,67.58
2018-11-01T22:11:30.574Z,67.68
2018-11-01T22:13:55.707Z,68.67
2018-11-01T22:16:20.792Z,67.87
2018-11-01T22:18:45.895Z,67.63
2018-11-01T22:21:11.004Z,67.09
2018-11-01T22:23:36.120Z,67.53
2018-11-01T22:26:01.259Z,68.53
2018-11-01T22:28:26.513Z,68.26
2018-11-01T22:30:51.437Z,67.53
2018-11-01T22:33:16.571Z,67.79
2018-11-01T22:35:41.709Z,68.06
2018-11-01T22:38:06.913Z,68.02
2018-11-01T22:40:31.968Z,67.19
2018-11-01T22:43:16.049Z,67.69
2018-11-01T22:45:41.141Z,68.09
2018-11-01T22:48:06.365Z,67.94
2018-11-01T22:50:31.487Z,67.47
2018-11-01T22:52:56.584Z,69.00
2018-11-01T22:55:21.715Z,69.18
2018-11-01T22:57:46.824Z,69.46
2018-11-01T23:00:16.397Z,69.66
2018-11-01T23:02:41.876Z,69.26
2018-11-01T23:05:07.685Z,71.13
2018-11-01T23:07:32.808Z,69.66
2018-11-01T23:09:57.902Z,69.07
2018-11-01T23:12:22.990Z,69.10
2018-11-01T23:14:48.086Z,68.13
2018-11-01T23:17:13.178Z,68.87
2018-11-01T23:19:38.296Z,68.04
2018-11-01T23:22:03.438Z,69.02
2018-11-01T23:24:28.534Z,68.62
2018-11-01T23:26:53.653Z,68.18
2018-11-01T23:29:18.765Z,67.67
2018-11-01T23:31:43.894Z,69.37
2018-11-01T23:34:09.024Z,68.11
2018-11-01T23:36:52.784Z,68.05
2018-11-01T23:39:36.540Z,67.59
2018-11-01T23:42:20.345Z,68.43
2018-11-01T23:45:04.111Z,68.64
2018-11-01T23:47:47.940Z,68.37
2018-11-01T23:50:31.706Z,67.98
2018-11-01T23:52:58.598Z,67.65
2018-11-01T23:55:23.659Z,68.51
2018-11-01T23:57:48.779Z,68.21
